Time;durP1;ratioP1;P1;durP2;ratioP2;P2;SDS_P1;SDS_P2;PMS_P1;PMS_P2;Temp;Humidity;BMP_temperature;BMP_pressure;BME280_temperature;BME280_humidity;BME280_pressure;Samples;Min_cycle;Max_cycle;Signal;HPM_P1;HPM_P2
2022/09/05 00:02:37;;;;;;;;;;;;;;;25.93;nan;101153.34;5033731;28;1914;-44
2022/09/05 00:05:55;;;;;;;;;;;;;;;25.91;nan;101160.66;5033534;28;1260;-43
2022/09/05 00:08:59;;;;;;;;;;;;;;;25.90;nan;101150.13;5025137;28;1213;-41
2022/09/05 00:11:48;;;;;;;;;;;;;;;25.85;nan;101145.13;5033801;28;1145;-43
2022/09/05 00:14:43;;;;;;;;;;;;;;;25.86;nan;101143.31;5033407;28;1247;-43
2022/09/05 00:17:48;;;;;;;;;;;;;;;25.92;nan;101140.16;5033750;28;808;-42
2022/09/05 00:21:02;;;;;;;;;;;;;;;25.93;nan;101136.53;5033821;28;1396;-43
2022/09/05 00:24:16;;;;;;;;;;;;;;;25.87;nan;101140.50;5033448;28;1205;-41
2022/09/05 00:27:40;;;;;;;;;;;;;;;25.89;nan;101135.91;5033244;28;626;-42
2022/09/05 00:30:28;;;;;;;;;;;;;;;25.90;nan;101137.59;5033228;28;1235;-44
2022/09/05 00:33:44;;;;;;;;;;;;;;;25.88;nan;101130.69;5033255;28;641;-42
2022/09/05 00:36:35;;;;;;;;;;;;;;;25.84;nan;101131.94;5032081;28;1091;-43
2022/09/05 00:39:25;;;;;;;;;;;;;;;25.85;nan;101129.13;5032844;28;1225;-43
2022/09/05 00:42:14;;;;;;;;;;;;;;;25.85;nan;101134.47;5033018;28;1914;-42
2022/09/05 00:45:01;;;;;;;;;;;;;;;25.84;nan;101132.75;5032742;28;1260;-43
2022/09/05 00:47:57;;;;;;;;;;;;;;;25.89;nan;101135.91;5031797;28;1452;-44
2022/09/05 00:51:01;;;;;;;;;;;;;;;25.91;nan;101139.31;5033107;28;1209;-41
2022/09/05 00:54:06;;;;;;;;;;;;;;;25.88;nan;101120.88;5032874;28;1268;-41
2022/09/05 00:57:10;;;;;;;;;;;;;;;25.85;nan;101112.25;5032971;28;1165;-43
2022/09/05 01:00:03;;;;;;;;;;;;;;;25.81;nan;101119.66;5032513;28;1214;-43
2022/09/05 01:03:11;;;;;;;;;;;;;;;25.89;nan;101113.72;5032469;28;1974;-44
2022/09/05 01:06:15;;;;;;;;;;;;;;;25.86;nan;101109.47;5032600;28;1491;-43
2022/09/05 01:09:09;;;;;;;;;;;;;;;25.85;nan;101106.91;5032621;28;1253;-41
2022/09/05 01:12:01;;;;;;;;;;;;;;;25.85;nan;101112.25;5033817;28;1086;-42
2022/09/05 01:15:05;;;;;;;;;;;;;;;25.86;nan;101108.63;5035560;28;1253;-42
2022/09/05 01:18:13;;;;;;;;;;;;;;;25.88;nan;101106.66;5036560;28;642;-42
2022/09/05 01:21:17;;;;;;;;;;;;;;;25.85;nan;101107.78;5036684;28;1292;-44
2022/09/05 01:24:03;;;;;;;;;;;;;;;25.81;nan;101114.31;5036598;28;1225;-40
2022/09/05 01:26:56;;;;;;;;;;;;;;;25.82;nan;101112.50;5036820;28;1162;-40
2022/09/05 01:29:48;;;;;;;;;;;;;;;25.82;nan;101109.84;5036514;28;1258;-43
2022/09/05 01:32:50;;;;;;;;;;;;;;;25.85;nan;101106.91;5036436;28;626;-43
2022/09/05 01:35:44;;;;;;;;;;;;;;;25.80;nan;101103.78;5036132;28;1444;-43
2022/09/05 01:38:55;;;;;;;;;;;;;;;25.78;nan;101103.03;5035875;28;727;-43
2022/09/05 01:42:08;;;;;;;;;;;;;;;25.79;nan;101104.75;5036660;28;1911;-42
2022/09/05 01:45:06;;;;;;;;;;;;;;;25.84;nan;101110.56;5036016;28;1268;-43
2022/09/05 01:48:03;;;;;;;;;;;;;;;25.75;nan;101111.28;5033934;28;1575;-43
2022/09/05 01:50:48;;;;;;;;;;;;;;;25.80;nan;101101.97;5034420;28;1178;-42
2022/09/05 01:53:34;;;;;;;;;;;;;;;25.84;nan;101110.56;5030363;28;670;-42
2022/09/05 01:56:32;;;;;;;;;;;;;;;25.73;nan;101107.91;5016406;28;1042;-43
2022/09/05 01:59:30;;;;;;;;;;;;;;;25.72;nan;101103.53;5026876;28;1276;-43
2022/09/05 02:02:34;;;;;;;;;;;;;;;25.76;nan;101105.00;5035810;28;1976;-43
2022/09/05 02:05:38;;;;;;;;;;;;;;;25.78;nan;101108.38;5035602;28;1260;-43
2022/09/05 02:08:34;;;;;;;;;;;;;;;25.73;nan;101114.09;5035973;28;794;-43
2022/09/05 02:11:36;;;;;;;;;;;;;;;25.71;nan;101112.53;5036161;28;1072;-41
2022/09/05 02:14:39;;;;;;;;;;;;;;;25.71;nan;101112.53;5035425;28;1314;-44
2022/09/05 02:17:40;;;;;;;;;;;;;;;25.67;nan;101114.59;5035417;28;622;-44
2022/09/05 02:20:48;;;;;;;;;;;;;;;25.79;nan;101112.75;5035314;28;1483;-41
2022/09/05 02:23:34;;;;;;;;;;;;;;;25.78;nan;101105.72;5033847;28;1962;-41
2022/09/05 02:26:28;;;;;;;;;;;;;;;25.74;nan;101109.63;5035496;28;1038;-43
2022/09/05 02:29:18;;;;;;;;;;;;;;;25.74;nan;101102.47;5035013;28;1241;-41
2022/09/05 02:32:31;;;;;;;;;;;;;;;25.79;nan;101113.59;5035044;28;676;-42
2022/09/05 02:35:29;;;;;;;;;;;;;;;25.71;nan;101110.72;5034747;28;1296;-43
2022/09/05 02:38:19;;;;;;;;;;;;;;;25.75;nan;101109.47;5035138;28;606;-42
2022/09/05 02:41:37;;;;;;;;;;;;;;;25.73;nan;101102.56;5035709;28;938;-43
2022/09/05 02:44:51;;;;;;;;;;;;;;;25.66;nan;101106.69;5035004;28;1348;-42
2022/09/05 02:48:11;;;;;;;;;;;;;;;25.71;nan;101107.19;5034403;28;606;-38
2022/09/05 02:51:17;;;;;;;;;;;;;;;25.68;nan;101110.97;5035001;28;1209;-42
2022/09/05 02:54:25;;;;;;;;;;;;;;;25.66;nan;101112.03;5034996;28;1275;-41
2022/09/05 02:57:53;;;;;;;;;;;;;;;25.58;nan;101111.81;5035075;28;781;-41
2022/09/05 03:01:07;;;;;;;;;;;;;;;25.57;nan;101116.28;5033764;28;1307;-43
2022/09/05 03:03:56;;;;;;;;;;;;;;;25.62;nan;101118.59;5034479;28;1981;-40
2022/09/05 03:06:59;;;;;;;;;;;;;;;25.64;nan;101119.31;5034767;28;1136;-43
2022/09/05 03:10:04;;;;;;;;;;;;;;;25.63;nan;101120.28;5034138;28;1248;-42
2022/09/05 03:12:49;;;;;;;;;;;;;;;25.58;nan;101114.47;5034650;28;700;-40
2022/09/05 03:15:47;;;;;;;;;;;;;;;25.56;nan;101117.28;5034510;28;1320;-43
2022/09/05 03:18:38;;;;;;;;;;;;;;;25.60;nan;101118.72;5034712;28;622;-43
2022/09/05 03:21:33;;;;;;;;;;;;;;;25.58;nan;101110.00;5034741;28;1026;-41
2022/09/05 03:24:27;;;;;;;;;;;;;;;25.58;nan;101115.34;5033382;28;1910;-41
2022/09/05 03:27:19;;;;;;;;;;;;;;;25.46;nan;101117.13;5034329;28;696;-42
2022/09/05 03:30:05;;;;;;;;;;;;;;;25.46;nan;101122.47;5034037;28;1247;-42
2022/09/05 03:33:15;;;;;;;;;;;;;;;25.47;nan;101120.66;5034256;28;712;-43
2022/09/05 03:36:24;;;;;;;;;;;;;;;25.43;nan;101130.72;5034101;28;1395;-43
2022/09/05 03:39:27;;;;;;;;;;;;;;;25.45;nan;101126.09;5034252;28;1332;-33
2022/09/05 03:42:16;;;;;;;;;;;;;;;25.48;nan;101117.88;5032967;28;1906;-34
2022/09/05 03:45:10;;;;;;;;;;;;;;;25.46;nan;101127.78;5034267;28;1291;-35
2022/09/05 03:47:59;;;;;;;;;;;;;;;25.54;nan;101125.38;5033677;28;673;-34
2022/09/05 03:50:49;;;;;;;;;;;;;;;25.52;nan;101122.00;5034017;28;1242;-43
2022/09/05 03:54:03;;;;;;;;;;;;;;;25.50;nan;101126.59;5033895;28;1301;-43
2022/09/05 03:57:18;;;;;;;;;;;;;;;25.51;nan;101130.13;5034437;28;676;-42
2022/09/05 04:00:22;;;;;;;;;;;;;;;25.49;nan;101127.59;5033604;28;1315;-42
2022/09/05 04:03:20;;;;;;;;;;;;;;;25.47;nan;101134.81;5033417;28;1969;-42
2022/09/05 04:06:31;;;;;;;;;;;;;;;25.47;nan;101134.81;5033072;28;1149;-42
2022/09/05 04:09:49;;;;;;;;;;;;;;;25.41;nan;101135.28;5032652;28;1269;-41
2022/09/05 04:12:58;;;;;;;;;;;;;;;25.45;nan;101144.75;5033164;28;653;-40
2022/09/05 04:15:45;;;;;;;;;;;;;;;25.38;nan;101132.88;5013436;28;1300;-43
2022/09/05 04:18:37;;;;;;;;;;;;;;;25.45;nan;101135.91;5024939;28;668;-42
2022/09/05 04:21:28;;;;;;;;;;;;;;;25.42;nan;101131.66;5033423;28;1025;-43
2022/09/05 04:24:14;;;;;;;;;;;;;;;25.44;nan;101134.22;5013220;28;1910;-41
2022/09/05 04:27:05;;;;;;;;;;;;;;;25.46;nan;101143.78;5013884;28;1081;-42
2022/09/05 04:29:50;;;;;;;;;;;;;;;25.48;nan;101141.00;5013486;28;1355;-43
2022/09/05 04:32:45;;;;;;;;;;;;;;;25.49;nan;101130.25;5013844;28;579;-41
2022/09/05 04:35:50;;;;;;;;;;;;;;;25.53;nan;101115.69;5019512;28;1237;-42
2022/09/05 04:38:37;;;;;;;;;;;;;;;25.57;nan;101118.09;5032977;28;1129;-42
2022/09/05 04:41:26;;;;;;;;;;;;;;;25.56;nan;101111.94;5033418;28;1049;-37
2022/09/05 04:44:40;;;;;;;;;;;;;;;25.60;nan;101120.53;5033558;28;1910;-43
2022/09/05 04:47:34;;;;;;;;;;;;;;;25.60;nan;101134.72;5032645;28;1094;-39
2022/09/05 04:50:21;;;;;;;;;;;;;;;25.57;nan;101144.78;5032337;28;1261;-42
2022/09/05 04:53:07;;;;;;;;;;;;;;;25.59;nan;101142.84;5033300;28;669;-43
2022/09/05 04:55:56;;;;;;;;;;;;;;;25.64;nan;101146.00;5033470;28;1332;-42
2022/09/05 04:58:48;;;;;;;;;;;;;;;25.63;nan;101147.81;5033055;28;686;-42
2022/09/05 05:01:57;;;;;;;;;;;;;;;25.61;nan;101154.25;5016929;28;1151;-41
2022/09/05 05:05:09;;;;;;;;;;;;;;;25.59;nan;101153.53;5033517;28;1267;-43
2022/09/05 05:08:20;;;;;;;;;;;;;;;25.61;nan;101162.25;5023820;28;683;-43
2022/09/05 05:11:24;;;;;;;;;;;;;;;25.61;nan;101156.91;5013513;28;1125;-42
2022/09/05 05:14:41;;;;;;;;;;;;;;;25.62;nan;101161.28;5013192;28;1325;-44
2022/09/05 05:17:51;;;;;;;;;;;;;;;25.56;nan;101145.78;5013596;28;708;-41
2022/09/05 05:21:12;;;;;;;;;;;;;;;25.53;nan;101163.69;5013943;28;1304;-43
2022/09/05 05:23:57;;;;;;;;;;;;;;;25.54;nan;101157.41;5012955;28;1918;-42
2022/09/05 05:26:42;;;;;;;;;;;;;;;25.58;nan;101160.69;5012724;28;975;-43
2022/09/05 05:29:36;;;;;;;;;;;;;;;25.65;nan;101166.38;5012777;28;1265;-42
2022/09/05 05:32:27;;;;;;;;;;;;;;;25.64;nan;101164.66;5013000;28;1531;-43
2022/09/05 05:35:32;;;;;;;;;;;;;;;25.63;nan;101162.97;5019117;28;1371;-42
2022/09/05 05:38:27;;;;;;;;;;;;;;;25.70;nan;101159.69;5012609;28;672;-44
2022/09/05 05:41:21;;;;;;;;;;;;;;;25.69;nan;101159.81;5013246;28;1062;-44
2022/09/05 05:44:12;;;;;;;;;;;;;;;25.69;nan;101160.66;5012670;28;1981;-43
2022/09/05 05:46:57;;;;;;;;;;;;;;;25.73;nan;101169.28;5013345;28;1624;-42
2022/09/05 05:50:04;;;;;;;;;;;;;;;25.81;nan;101164.16;5032396;28;1256;-44
2022/09/05 05:53:01;;;;;;;;;;;;;;;25.82;nan;101168.53;5028450;28;1740;-44
2022/09/05 05:55:59;;;;;;;;;;;;;;;25.83;nan;101172.91;5032531;28;1319;-42
2022/09/05 05:58:45;;;;;;;;;;;;;;;25.87;nan;101161.03;5034552;28;707;-41
2022/09/05 06:01:37;;;;;;;;;;;;;;;25.88;nan;101157.38;5035051;28;1080;-40
2022/09/05 06:04:41;;;;;;;;;;;;;;;25.89;nan;101156.41;5032723;28;1966;-46
2022/09/05 06:07:47;;;;;;;;;;;;;;;25.99;nan;101154.72;5029462;28;677;-40
2022/09/05 06:11:06;;;;;;;;;;;;;;;26.14;nan;101150.78;5026011;28;1424;-43
2022/09/05 06:14:34;;;;;;;;;;;;;;;26.04;nan;101128.47;5032485;28;1340;-39
2022/09/05 06:17:57;;;;;;;;;;;;;;;26.04;nan;101126.66;5014339;28;625;-40
2022/09/05 06:20:56;;;;;;;;;;;;;;;26.05;nan;101124.84;5032459;28;1288;-37
2022/09/05 06:24:13;;;;;;;;;;;;;;;26.11;nan;101124.34;5027657;28;1902;-39
2022/09/05 06:27:12;;;;;;;;;;;;;;;26.03;nan;101126.78;5024763;28;1158;-40
2022/09/05 06:30:18;;;;;;;;;;;;;;;26.03;nan;101127.63;5026595;28;1407;-40
2022/09/05 06:33:22;;;;;;;;;;;;;;;26.08;nan;101124.59;5034647;28;633;-42
2022/09/05 06:36:08;;;;;;;;;;;;;;;26.04;nan;101117.81;5030082;28;1413;-39
2022/09/05 06:39:01;;;;;;;;;;;;;;;26.01;nan;101107.38;5033160;28;1280;-42
2022/09/05 06:41:59;;;;;;;;;;;;;;;26.02;nan;101111.75;5016290;28;1169;-40
2022/09/05 06:45:00;;;;;;;;;;;;;;;26.03;nan;101111.59;5013976;28;1915;-42
2022/09/05 06:48:08;;;;;;;;;;;;;;;25.97;nan;101095.25;5014705;28;646;-43
2022/09/05 06:51:02;;;;;;;;;;;;;;;25.90;nan;101088.72;5014600;28;1265;-40
2022/09/05 06:53:52;;;;;;;;;;;;;;;25.87;nan;101078.31;5032058;28;1391;-42
2022/09/05 06:56:45;;;;;;;;;;;;;;;25.85;nan;101072.22;5031605;28;1126;-41
2022/09/05 06:59:37;;;;;;;;;;;;;;;25.85;nan;101075.75;5032055;28;1256;-41
2022/09/05 07:02:45;;;;;;;;;;;;;;;25.88;nan;101082.66;5014293;28;720;-42
2022/09/05 07:05:49;;;;;;;;;;;;;;;25.88;nan;101063.97;5014366;28;1210;-44
2022/09/05 07:08:52;;;;;;;;;;;;;;;25.92;nan;101057.41;5014652;28;634;-35
2022/09/05 07:11:54;;;;;;;;;;;;;;;25.94;nan;101060.78;5015036;28;1126;-34
2022/09/05 07:14:49;;;;;;;;;;;;;;;25.75;nan;101057.94;5014681;28;1340;-33
2022/09/05 07:17:53;;;;;;;;;;;;;;;25.77;nan;101059.53;5014306;28;598;-35
2022/09/05 07:20:57;;;;;;;;;;;;;;;25.66;nan;101048.84;5014884;28;1347;-36
2022/09/05 07:24:14;;;;;;;;;;;;;;;25.64;nan;101052.63;5014707;28;1946;-44
2022/09/05 07:27:05;;;;;;;;;;;;;;;25.63;nan;101050.91;5014667;28;1055;-42
2022/09/05 07:29:55;;;;;;;;;;;;;;;25.72;nan;101060.84;5014327;28;1245;-40
2022/09/05 07:32:48;;;;;;;;;;;;;;;25.57;nan;101062.94;5014528;28;645;-39
2022/09/05 07:35:35;;;;;;;;;;;;;;;25.56;nan;101071.94;5013045;28;1340;-40
2022/09/05 07:38:31;;;;;;;;;;;;;;;25.76;nan;101084.50;5013419;28;804;-41
2022/09/05 07:41:38;;;;;;;;;;;;;;;25.74;nan;101106.94;5013248;28;1109;-44
2022/09/05 07:44:30;;;;;;;;;;;;;;;25.79;nan;101112.75;5014707;28;1906;-44
2022/09/05 07:47:16;;;;;;;;;;;;;;;25.80;nan;101112.66;5014421;28;1680;-41
2022/09/05 07:50:06;;;;;;;;;;;;;;;25.78;nan;101124.38;5014040;28;1249;-40
2022/09/05 07:53:13;;;;;;;;;;;;;;;25.89;nan;101140.41;5024458;28;1608;-44
2022/09/05 07:56:37;;;;;;;;;;;;;;;25.91;nan;101133.97;5019846;28;1060;-39
2022/09/05 07:59:45;;;;;;;;;;;;;;;26.01;nan;101134.91;5017736;28;1324;-41
2022/09/05 08:02:31;;;;;;;;;;;;;;;26.11;nan;101156.38;5032873;28;772;-42
2022/09/05 08:05:18;;;;;;;;;;;;;;;26.19;nan;101179.81;5031213;28;1910;-39
2022/09/05 08:08:10;;;;;;;;;;;;;;;26.25;nan;101177.47;5033302;28;810;-43
2022/09/05 08:10:59;;;;;;;;;;;;;;;26.29;nan;101184.28;5027186;28;1304;-40
2022/09/05 08:14:13;;;;;;;;;;;;;;;26.30;nan;101193.13;5033307;28;1379;-38
2022/09/05 08:17:23;;;;;;;;;;;;;;;26.39;nan;101208.38;5027559;28;681;-39
2022/09/05 08:20:28;;;;;;;;;;;;;;;26.47;nan;101212.16;5027408;28;1355;-40
2022/09/05 08:23:32;;;;;;;;;;;;;;;26.49;nan;101228.03;5029306;28;1914;-39
2022/09/05 08:26:17;;;;;;;;;;;;;;;26.57;nan;101245.13;5021619;28;1120;-36
2022/09/05 08:29:07;;;;;;;;;;;;;;;26.71;nan;101248.50;5032896;28;1347;-37
2022/09/05 08:32:01;;;;;;;;;;;;;;;26.66;nan;101246.19;5029915;28;1224;-40
2022/09/05 08:34:58;;;;;;;;;;;;;;;26.70;nan;101250.31;5030298;28;1300;-35
2022/09/05 08:37:44;;;;;;;;;;;;;;;26.77;nan;101253.34;5026464;28;799;-39
2022/09/05 08:40:37;;;;;;;;;;;;;;;26.75;nan;101242.75;5028953;28;1283;-37
2022/09/05 08:43:33;;;;;;;;;;;;;;;26.81;nan;101242.28;5032162;28;1910;-43
2022/09/05 08:46:39;;;;;;;;;;;;;;;26.83;nan;101244.84;5029418;28;1311;-42
2022/09/05 08:49:52;;;;;;;;;;;;;;;26.83;nan;101236.81;5029691;28;1320;-39
2022/09/05 08:53:10;;;;;;;;;;;;;;;26.85;nan;101229.50;5026852;28;665;-43
2022/09/05 08:56:12;;;;;;;;;;;;;;;26.82;nan;101238.63;5015317;28;1115;-41
2022/09/05 08:59:01;;;;;;;;;;;;;;;26.89;nan;101238.97;5030283;28;1277;-44
2022/09/05 09:02:38;;;;;;;;;;;;;;;26.86;nan;101239.22;5028488;28;967;-44
2022/09/05 09:05:44;;;;;;;;;;;;;;;26.90;nan;101240.69;5022280;28;1914;-38
2022/09/05 09:08:58;;;;;;;;;;;;;;;26.88;nan;101256.84;5031811;28;692;-41
2022/09/05 09:11:50;;;;;;;;;;;;;;;27.02;nan;101250.34;5025958;28;1134;-43
2022/09/05 09:14:54;;;;;;;;;;;;;;;27.03;nan;101246.69;5032394;28;1364;-41
2022/09/05 09:17:44;;;;;;;;;;;;;;;27.09;nan;101241.66;5032062;28;760;-37
2022/09/05 09:20:51;;;;;;;;;;;;;;;27.15;nan;101251.00;5022672;28;1356;-41
2022/09/05 09:23:43;;;;;;;;;;;;;;;27.27;nan;101255.28;5026779;28;1902;-41
2022/09/05 09:26:33;;;;;;;;;;;;;;;27.23;nan;101247.69;5028754;28;1157;-43
2022/09/05 09:29:18;;;;;;;;;;;;;;;27.24;nan;101260.91;5031886;28;1410;-37
2022/09/05 09:32:12;;;;;;;;;;;;;;;27.29;nan;101258.72;5030222;28;1121;-44
2022/09/05 09:35:03;;;;;;;;;;;;;;;27.25;nan;101259.94;5033578;28;1253;-43
2022/09/05 09:38:16;;;;;;;;;;;;;;;27.31;nan;101245.19;5032942;28;685;-41
2022/09/05 09:41:16;;;;;;;;;;;;;;;27.31;nan;101235.34;5020430;28;1297;-42
2022/09/05 09:44:02;;;;;;;;;;;;;;;27.28;nan;101232.94;5035789;28;1981;-42
2022/09/05 09:46:49;;;;;;;;;;;;;;;27.29;nan;101225.75;5034750;28;1494;-44
2022/09/05 09:49:34;;;;;;;;;;;;;;;27.28;nan;101224.06;5035447;28;1386;-39
2022/09/05 09:52:29;;;;;;;;;;;;;;;27.26;nan;101221.53;5029672;28;727;-43
2022/09/05 09:55:23;;;;;;;;;;;;;;;27.32;nan;101220.16;5030406;28;1300;-41
2022/09/05 09:58:27;;;;;;;;;;;;;;;27.39;nan;101222.16;5031235;28;660;-43
2022/09/05 10:01:22;;;;;;;;;;;;;;;27.33;nan;101205.81;5026959;28;1099;-42
2022/09/05 10:04:53;;;;;;;;;;;;;;;27.35;nan;101215.38;5034314;28;1906;-43
2022/09/05 10:08:18;;;;;;;;;;;;;;;27.30;nan;101220.25;5021471;28;1012;-42
2022/09/05 10:11:38;;;;;;;;;;;;;;;27.29;nan;101223.94;5033898;28;1002;-41
2022/09/05 10:14:53;;;;;;;;;;;;;;;27.30;nan;101222.94;5031460;28;1296;-43
2022/09/05 10:17:39;;;;;;;;;;;;;;;27.33;nan;101217.31;5033151;28;1066;-45
2022/09/05 10:20:38;;;;;;;;;;;;;;;27.30;nan;101214.09;5031000;28;1559;-43
2022/09/05 10:23:29;;;;;;;;;;;;;;;27.37;nan;101212.56;5029200;28;1008;-42
2022/09/05 10:26:27;;;;;;;;;;;;;;;27.39;nan;101213.31;5030064;28;1096;-44
2022/09/05 10:29:33;;;;;;;;;;;;;;;27.41;nan;101216.69;5035202;28;1245;-43
2022/09/05 10:32:45;;;;;;;;;;;;;;;27.51;nan;101209.59;5030662;28;1039;-42
2022/09/05 10:35:55;;;;;;;;;;;;;;;27.42;nan;101202.34;5030774;28;1343;-45
2022/09/05 10:38:48;;;;;;;;;;;;;;;27.49;nan;101200.84;5034282;28;727;-44
2022/09/05 10:41:43;;;;;;;;;;;;;;;27.55;nan;101206.50;5028503;28;1043;-44
2022/09/05 10:44:39;;;;;;;;;;;;;;;27.46;nan;101206.44;5032720;28;1965;-44
2022/09/05 10:47:34;;;;;;;;;;;;;;;27.58;nan;101206.25;5032272;28;1074;-44
2022/09/05 10:50:23;;;;;;;;;;;;;;;27.64;nan;101211.06;5033716;28;1284;-45
2022/09/05 10:53:08;;;;;;;;;;;;;;;27.83;nan;101204.09;5035449;28;675;-36
2022/09/05 10:56:05;;;;;;;;;;;;;;;27.73;nan;101195.16;5034533;28;1375;-35
2022/09/05 10:59:00;;;;;;;;;;;;;;;27.60;nan;101198.09;5031168;28;1280;-35
2022/09/05 11:02:07;;;;;;;;;;;;;;;27.58;nan;101200.03;5023861;28;1067;-34
2022/09/05 11:05:18;;;;;;;;;;;;;;;27.56;nan;101202.00;5032885;28;1902;-35
2022/09/05 11:08:04;;;;;;;;;;;;;;;27.58;nan;101200.88;5033520;28;729;-35
2022/09/05 11:10:53;;;;;;;;;;;;;;;27.65;nan;101198.53;5029279;28;1399;-34
2022/09/05 11:13:46;;;;;;;;;;;;;;;27.77;nan;101200.13;5034054;28;1102;-35
2022/09/05 11:16:38;;;;;;;;;;;;;;;27.81;nan;101190.00;5023452;28;1252;-35
2022/09/05 11:19:26;;;;;;;;;;;;;;;27.68;nan;101191.09;5031072;28;1410;-35
2022/09/05 11:22:12;;;;;;;;;;;;;;;27.93;nan;101186.25;5029170;28;955;-34
2022/09/05 11:25:18;;;;;;;;;;;;;;;27.86;nan;101179.72;5031145;28;1906;-35
2022/09/05 11:28:30;;;;;;;;;;;;;;;27.83;nan;101174.66;5030331;28;1201;-35
2022/09/05 11:31:18;;;;;;;;;;;;;;;27.97;nan;101172.44;5026634;28;1248;-33
2022/09/05 11:34:17;;;;;;;;;;;;;;;28.03;nan;101168.34;5028252;28;1288;-36
2022/09/05 11:37:34;;;;;;;;;;;;;;;27.93;nan;101167.50;5030223;28;1033;-35
2022/09/05 11:40:58;;;;;;;;;;;;;;;27.98;nan;101170.59;5029521;28;1270;-34
2022/09/05 11:44:03;;;;;;;;;;;;;;;28.04;nan;101162.03;5030532;28;1910;-33
2022/09/05 11:47:27;;;;;;;;;;;;;;;27.96;nan;101162.72;5029395;28;1185;-34
2022/09/05 11:50:40;;;;;;;;;;;;;;;28.09;nan;101152.63;5029731;28;1315;-34
2022/09/05 11:53:26;;;;;;;;;;;;;;;28.02;nan;101151.47;5028691;28;1240;-35
2022/09/05 11:56:30;;;;;;;;;;;;;;;28.11;nan;101165.88;5029651;28;1131;-33
2022/09/05 11:59:16;;;;;;;;;;;;;;;28.06;nan;101165.44;5029051;28;1272;-35
2022/09/05 12:02:32;;;;;;;;;;;;;;;28.26;nan;101167.19;5026809;28;1217;-39
2022/09/05 12:05:37;;;;;;;;;;;;;;;28.25;nan;101156.59;5025835;28;1977;-34
2022/09/05 12:08:46;;;;;;;;;;;;;;;28.31;nan;101156.88;5027283;28;1319;-35
2022/09/05 12:12:02;;;;;;;;;;;;;;;28.15;nan;101159.25;5027377;28;1039;-34
2022/09/05 12:15:03;;;;;;;;;;;;;;;28.24;nan;101161.09;5027907;28;1425;-42
2022/09/05 12:17:59;;;;;;;;;;;;;;;28.32;nan;101152.38;5030178;28;1237;-40
2022/09/05 12:21:20;;;;;;;;;;;;;;;28.35;nan;101146.72;5028593;28;1611;-41
2022/09/05 12:24:20;;;;;;;;;;;;;;;28.41;nan;101144.34;5041391;28;1906;-42
2022/09/05 12:27:28;;;;;;;;;;;;;;;28.30;nan;101139.09;5039507;28;959;-45
2022/09/05 12:30:30;;;;;;;;;;;;;;;28.37;nan;101142.06;5029919;28;1362;-39
2022/09/05 12:33:30;;;;;;;;;;;;;;;28.38;nan;101141.09;5031123;28;1121;-40
2022/09/05 12:36:42;;;;;;;;;;;;;;;28.37;nan;101155.47;5030491;28;1114;-39
2022/09/05 12:40:00;;;;;;;;;;;;;;;28.32;nan;101171.97;5030027;28;1268;-43
2022/09/05 12:43:10;;;;;;;;;;;;;;;28.32;nan;101166.63;5028299;28;1387;-43
2022/09/05 12:46:15;;;;;;;;;;;;;;;28.36;nan;101165.34;5028634;28;1975;-43
2022/09/05 12:49:14;;;;;;;;;;;;;;;28.37;nan;101160.81;5031007;28;1348;-42
2022/09/05 12:52:10;;;;;;;;;;;;;;;28.44;nan;101170.00;5022010;28;1056;-42
2022/09/05 12:55:00;;;;;;;;;;;;;;;28.39;nan;101170.41;5025159;28;1332;-42
2022/09/05 12:57:51;;;;;;;;;;;;;;;28.36;nan;101157.28;5030802;28;645;-44
2022/09/05 13:01:18;;;;;;;;;;;;;;;28.36;nan;101159.97;5023498;28;1249;-41
2022/09/05 13:04:26;;;;;;;;;;;;;;;28.33;nan;101148.72;5031089;28;1979;-41
2022/09/05 13:07:19;;;;;;;;;;;;;;;27.68;nan;101145.59;5024126;28;960;-40
2022/09/05 13:10:18;;;;;;;;;;;;;;;27.10;nan;101151.59;5031488;28;1260;-43
2022/09/05 13:13:30;;;;;;;;;;;;;;;26.76;nan;101140.22;5028405;28;629;-43
2022/09/05 13:16:40;;;;;;;;;;;;;;;26.47;nan;101153.38;5025444;28;968;-42
2022/09/05 13:19:29;;;;;;;;;;;;;;;26.29;nan;101141.53;5026731;28;1474;-43
2022/09/05 13:22:19;;;;;;;;;;;;;;;26.22;nan;101158.19;5025027;28;1291;-43
2022/09/05 13:25:08;;;;;;;;;;;;;;;26.09;nan;101166.31;5026753;28;1907;-42
2022/09/05 13:28:00;;;;;;;;;;;;;;;26.03;nan;101142.78;5014195;28;786;-42
2022/09/05 13:30:54;;;;;;;;;;;;;;;26.10;nan;101135.97;5029290;28;1423;-41
2022/09/05 13:34:02;;;;;;;;;;;;;;;26.24;nan;101102.81;5023944;28;1351;-43
2022/09/05 13:37:41;;;;;;;;;;;;;;;26.24;nan;101122.38;5019282;28;1212;-39
2022/09/05 13:40:48;;;;;;;;;;;;;;;26.15;nan;101133.81;5012890;28;1360;-41
2022/09/05 13:43:39;;;;;;;;;;;;;;;26.14;nan;101136.59;5016797;28;1445;-42
2022/09/05 13:46:43;;;;;;;;;;;;;;;26.04;nan;101140.00;5022849;28;2069;-38
2022/09/05 13:49:35;;;;;;;;;;;;;;;25.98;nan;101128.97;5031299;28;1352;-40
2022/09/05 13:52:20;;;;;;;;;;;;;;;25.95;nan;101113.22;5025635;28;981;-42
2022/09/05 13:55:12;;;;;;;;;;;;;;;25.91;nan;101112.59;5030427;28;1356;-43
2022/09/05 13:58:06;;;;;;;;;;;;;;;25.99;nan;101101.31;5026808;28;1478;-43
2022/09/05 14:01:21;;;;;;;;;;;;;;;26.02;nan;101098.41;5025644;28;1253;-40
2022/09/05 14:04:24;;;;;;;;;;;;;;;26.01;nan;101102.03;5024341;28;1336;-43
2022/09/05 14:07:50;;;;;;;;;;;;;;;25.95;nan;101103.38;5022997;28;983;-43
2022/09/05 14:10:35;;;;;;;;;;;;;;;25.88;nan;101109.34;5019499;28;1364;-42
2022/09/05 14:13:23;;;;;;;;;;;;;;;25.86;nan;101105.94;5024024;28;881;-43
2022/09/05 14:16:19;;;;;;;;;;;;;;;25.86;nan;101087.28;5021850;28;1300;-43
2022/09/05 14:22:12;;;;;;;;;;;;;;;25.90;nan;101091.41;5027976;28;944;-43
2022/09/05 14:25:10;;;;;;;;;;;;;;;25.84;nan;101086.56;5028591;28;1914;-41
2022/09/05 14:28:10;;;;;;;;;;;;;;;25.82;nan;101085.81;5025821;28;645;-42
2022/09/05 14:31:06;;;;;;;;;;;;;;;25.82;nan;101093.81;5029194;28;1383;-42
2022/09/05 14:34:30;;;;;;;;;;;;;;;25.81;nan;101094.78;5029774;28;1287;-42
2022/09/05 14:37:42;;;;;;;;;;;;;;;25.77;nan;101088.03;5022864;28;916;-40
2022/09/05 14:41:06;;;;;;;;;;;;;;;25.75;nan;101084.59;5023880;28;1391;-41
2022/09/05 14:43:59;;;;;;;;;;;;;;;25.74;nan;101077.59;5027874;28;1387;-44
2022/09/05 14:46:58;;;;;;;;;;;;;;;25.76;nan;101068.50;5018323;28;1981;-40
2022/09/05 14:49:58;;;;;;;;;;;;;;;25.71;nan;101065.34;5029006;28;1324;-41
2022/09/05 14:53:04;;;;;;;;;;;;;;;25.71;nan;101052.03;5025746;28;632;-40
2022/09/05 14:56:20;;;;;;;;;;;;;;;25.79;nan;101048.72;5022833;28;1284;-45
2022/09/05 14:59:31;;;;;;;;;;;;;;;25.79;nan;101057.56;5029723;28;1315;-44
2022/09/05 15:02:41;;;;;;;;;;;;;;;25.74;nan;101045.59;5028365;28;712;-42
2022/09/05 15:05:48;;;;;;;;;;;;;;;25.76;nan;101046.28;5025289;28;2033;-42
2022/09/05 15:08:34;;;;;;;;;;;;;;;25.72;nan;101037.69;5032521;28;738;-43
2022/09/05 15:11:40;;;;;;;;;;;;;;;25.71;nan;101032.50;5031370;28;964;-42
2022/09/05 15:14:59;;;;;;;;;;;;;;;25.73;nan;101049.22;5033080;28;1320;-42
2022/09/05 15:17:59;;;;;;;;;;;;;;;25.74;nan;101045.59;5032256;28;665;-43
2022/09/05 15:20:51;;;;;;;;;;;;;;;25.68;nan;101035.41;5030111;28;1332;-42
2022/09/05 15:23:37;;;;;;;;;;;;;;;25.73;nan;101034.06;5033873;28;721;-41
2022/09/05 15:26:22;;;;;;;;;;;;;;;25.71;nan;101029.81;5033314;28;1910;-42
2022/09/05 15:29:11;;;;;;;;;;;;;;;25.72;nan;101028.81;5033320;28;1395;-40
2022/09/05 15:32:10;;;;;;;;;;;;;;;25.73;nan;101034.06;5020788;28;1511;-40
2022/09/05 15:34:59;;;;;;;;;;;;;;;25.71;nan;101029.81;5025753;28;1265;-42
2022/09/05 15:37:45;;;;;;;;;;;;;;;25.75;nan;101025.91;5021637;28;1383;-42
2022/09/05 15:40:30;;;;;;;;;;;;;;;25.70;nan;101023.63;5029387;28;1251;-42
2022/09/05 15:43:15;;;;;;;;;;;;;;;25.77;nan;101035.50;5026298;28;605;-37
2022/09/05 15:46:05;;;;;;;;;;;;;;;25.65;nan;101025.84;5023011;28;1985;-44
2022/09/05 15:48:53;;;;;;;;;;;;;;;25.67;nan;101029.22;5032977;28;1387;-43
2022/09/05 15:51:47;;;;;;;;;;;;;;;25.65;nan;101027.66;5021147;28;1021;-44
2022/09/05 15:54:36;;;;;;;;;;;;;;;25.67;nan;101025.69;5032545;28;1376;-43
2022/09/05 15:57:32;;;;;;;;;;;;;;;25.69;nan;101026.41;5028993;28;1338;-44
2022/09/05 16:00:36;;;;;;;;;;;;;;;25.65;nan;101025.84;5031032;28;1288;-42
2022/09/05 16:03:29;;;;;;;;;;;;;;;25.67;nan;101023.03;5029092;28;704;-41
2022/09/05 16:06:35;;;;;;;;;;;;;;;25.66;nan;101024.00;5026765;28;1898;-41
2022/09/05 16:09:42;;;;;;;;;;;;;;;25.60;nan;101021.81;5032573;28;1308;-41